Flight Track Log - Related Links

Times and Time Zones

All times are in EDT time to prevent confusion due to time zone crossing. See the DLH808 flight status page for this flight to view local times or setup timezone preferences in your user account.

Time Position Orientation Groundspeed Altitude Reporting Facility
EDT Latitude Longitude Course Direction KTS MPH feet Rate Location/Type
Fri 04:04:00 PM 51.5412 9.7103 26° Northeast  Level Estimated
Fri 04:05:00 PM 51.6572 9.8033 26° Northeast  Level Estimated
Fri 04:06:00 PM 51.7732 9.8968 27° Northeast  Level Estimated
Fri 04:07:00 PM 51.8891 9.9907 27° Northeast  Level Estimated
Fri 04:08:00 PM 52.0049 10.0851 27° Northeast  Level Estimated
Fri 04:09:00 PM 52.1206 10.1801 27° Northeast  Level Estimated
Fri 04:10:00 PM 52.2362 10.2755 27° Northeast  Level Estimated
Fri 04:11:00 PM 52.3518 10.3714 27° Northeast  Level Estimated
Fri 04:12:00 PM 52.4673 10.4678 27° Northeast  Level Estimated
Fri 04:13:00 PM 52.5827 10.5647 27° Northeast  Level Estimated
Fri 04:14:00 PM 52.6981 10.6621 27° Northeast  Level Estimated
Fri 04:15:00 PM 52.8133 10.7601 27° Northeast  Level Estimated
Fri 04:16:00 PM 52.9285 10.8586 27° Northeast  Level Estimated
Fri 04:17:00 PM 53.0436 10.9576 27° Northeast  Level Estimated
Fri 04:18:00 PM 53.1586 11.0571 27° Northeast  Level Estimated
Fri 04:19:00 PM 53.2735 11.1572 27° Northeast  Level Estimated
Fri 04:20:00 PM 53.3884 11.2577 28° Northeast  Level Estimated
Fri 04:21:00 PM 53.5031 11.3589 28° Northeast  Level Estimated
Fri 04:22:00 PM 53.6178 11.4606 28° Northeast  Level Estimated
Fri 04:23:00 PM 53.7324 11.5628 28° Northeast  Level Estimated
Fri 04:24:00 PM 53.8469 11.6656 28° Northeast  Level Estimated
Fri 04:25:00 PM 53.9613 11.7690 28° Northeast  Level Estimated
Fri 04:26:00 PM 54.0756 11.8729 28° Northeast  Level Estimated
Fri 04:27:00 PM 54.1899 11.9775 28° Northeast  Level Estimated
Fri 04:28:00 PM 54.3040 12.0825 28° Northeast  Level Estimated
Fri 04:29:00 PM 54.4180 12.1882 28° Northeast  Level Estimated
Fri 04:30:00 PM 54.5320 12.2945 28° Northeast  Level Estimated
Fri 04:31:00 PM 54.6459 12.4013 28° Northeast  Level Estimated
Fri 04:32:00 PM 54.7596 12.5088 29° Northeast  Level Estimated
Fri 04:33:00 PM 54.8733 12.6168 29° Northeast  Level Estimated
Fri 04:34:00 PM 54.9869 12.7255 29° Northeast  Level Estimated
Fri 04:35:00 PM 55.1004 12.8348 29° Northeast  Level Estimated
Fri 04:36:00 PM 55.2137 12.9447 29° Northeast  Level Estimated
Fri 04:37:00 PM 55.3270 13.0553 29° Northeast  Level Estimated
Fri 04:38:00 PM 55.4402 13.1664 29° Northeast  Level Estimated
Fri 04:39:00 PM 55.5533 13.2782 29° Northeast  Level Estimated
Fri 04:40:00 PM 55.6663 13.3907 29° Northeast  Level Estimated
Fri 04:41:00 PM 55.7791 13.5038 29° Northeast  Level Estimated
Fri 04:42:00 PM 55.8919 13.6176 29° Northeast  Level Estimated
Fri 04:43:00 PM 56.0046 13.7320 30° Northeast  Level Estimated
Fri 04:44:00 PM 56.1171 13.8471 30° Northeast  Level Estimated
Fri 04:45:00 PM 56.2296 13.9629 30° Northeast  Level Estimated
Fri 04:46:00 PM 56.3419 14.0793 30° Northeast  Level Estimated
Fri 04:47:00 PM 56.4542 14.1965 30° Northeast  Level Estimated
Fri 04:48:00 PM 56.5663 14.3143 30° Northeast  Level Estimated
Fri 04:49:00 PM 56.6783 14.4328 30° Northeast  Level Estimated
Fri 04:50:00 PM 56.7902 14.5521 30° Northeast  Level Estimated
Fri 04:51:00 PM 56.9020 14.6721 30° Northeast  Level Estimated
Fri 04:52:00 PM 57.0136 14.7927 30° Northeast  Level Estimated
Fri 04:53:00 PM 57.1252 14.9141 31° Northeast  Level Estimated
Fri 04:54:00 PM 57.2366 15.0363 31° Northeast  Level Estimated
Fri 04:55:00 PM 57.3479 15.1591 31° Northeast  Level Estimated
Fri 04:56:00 PM 57.4591 15.2828 31° Northeast  Level Estimated
Fri 04:57:00 PM 57.5702 15.4071 31° Northeast  Level Estimated
Fri 04:58:00 PM 57.6811 15.5323 31° Northeast  Level Estimated
Fri 04:59:00 PM 57.7919 15.6582 31° Northeast  Level Estimated
Fri 05:00:00 PM 57.9026 15.7849 31° Northeast  Level Estimated
Fri 05:01:00 PM 58.0132 15.9123 31° Northeast  Level Estimated
Fri 05:02:00 PM 58.1236 16.0406 32° Northeast  Level Estimated
Fri 05:03:00 PM 58.2340 16.1696 32° Northeast  Level Estimated
Fri 05:04:00 PM 58.3441 16.2995 32° Northeast  Level Estimated
Fri 05:05:00 PM 58.4542 16.4301 32° Northeast  Level Estimated
Fri 05:06:00 PM 58.5641 16.5616 32° Northeast  Level Estimated
Fri 05:07:00 PM 58.6739 16.6939 32° Northeast  Level Estimated
Fri 05:08:00 PM 58.7835 16.8271 32° Northeast  Level Estimated
Fri 05:09:00 PM 58.8930 16.9611 32° Northeast  Level Estimated
Fri 05:10:00 PM 59.0024 17.0959 32° Northeast  Level Estimated
Fri 05:11:00 PM 59.1116 17.2316 33° Northeast  Level Estimated
Fri 05:12:00 PM 59.2207 17.3682 33° Northeast  Level Estimated
Fri 05:13:00 PM 59.3296 17.5056 33° Northeast  Level Estimated
Fri 05:14:00 PM 59.4384 17.6440 33° Northeast  Level Estimated
Fri 05:15:00 PM 59.5471 17.7832 33° Northeast  Level Estimated
Fri 05:16:00 PM 59.6519 17.9186 33° Northeast  Level Estimated
Fri 05:17:00 PM 59.6519 17.9186 North  Level Estimated
Fri 05:18:00 PM 59.6519 17.9186 North  Level Estimated
Fri 05:19:00 PM 59.6519 17.9186 North  Level Estimated
Fri 05:20:00 PM 59.6519 17.9186 North  Level Estimated
Fri 05:21:00 PM 59.6519 17.9186 North  Level Estimated
Fri 05:22:00 PM 59.6519 17.9186 North  Level Estimated
Fri 05:23:00 PM 59.6519 17.9186 North  Level Estimated
Fri 05:24:00 PM 59.6519 17.9186 North  Level Estimated
Fri 05:25:00 PM 59.6519 17.9186 North  Level Estimated
Fri 05:26:00 PM 59.6519 17.9186 North  Level Estimated
Fri 05:27:00 PM 59.6519 17.9186 North  Level Estimated
Fri 05:28:00 PM 59.6519 17.9186 North  Level Estimated
Fri 05:29:00 PM 59.6519 17.9186 North  Level Estimated
Fri 05:30:00 PM 59.6519 17.9186 North  Level Estimated
Fri 05:31:00 PM 59.6519 17.9186 North  Level Estimated
Fri 05:32:00 PM 59.6519 17.9186 North  Level Estimated

Login

Don't have an account? Register now (free) for customized features, flight alerts, and more!